createdAt,value
2018-01-04T00:00:45.523Z,0
2018-01-04T00:01:46.307Z,0
2018-01-04T00:02:48.187Z,0
2018-01-04T00:03:49.114Z,0
2018-01-04T00:04:49.880Z,0
2018-01-04T00:05:50.604Z,0
2018-01-04T00:06:51.338Z,0
2018-01-04T00:07:52.088Z,0
2018-01-04T00:08:52.790Z,0
2018-01-04T00:09:53.642Z,0
2018-01-04T00:10:54.440Z,0
2018-01-04T00:11:55.164Z,0
2018-01-04T00:12:55.933Z,0
2018-01-04T00:13:56.594Z,0
2018-01-04T00:14:57.464Z,0
2018-01-04T00:15:59.375Z,0
2018-01-04T00:17:00.452Z,0
2018-01-04T00:18:01.140Z,0
2018-01-04T00:19:01.870Z,0
2018-01-04T00:20:02.592Z,0
2018-01-04T00:21:03.373Z,0
2018-01-04T00:22:04.102Z,0
2018-01-04T00:23:04.825Z,0
2018-01-04T00:24:05.625Z,0
2018-01-04T00:25:06.404Z,0
2018-01-04T00:26:07.130Z,0
2018-01-04T00:27:07.851Z,0
2018-01-04T00:28:08.574Z,0
2018-01-04T00:29:09.330Z,0
2018-01-04T00:30:10.201Z,0
2018-01-04T00:31:10.966Z,0
2018-01-04T00:32:11.762Z,0
2018-01-04T00:33:12.491Z,0
2018-01-04T00:34:13.258Z,0
2018-01-04T00:35:14.032Z,0
2018-01-04T00:36:14.748Z,0
2018-01-04T00:37:15.481Z,0
2018-01-04T00:38:16.273Z,0
2018-01-04T00:39:17.040Z,0
2018-01-04T00:40:17.789Z,0
2018-01-04T00:41:18.552Z,0
2018-01-04T00:42:19.350Z,0
2018-01-04T00:43:20.119Z,0
2018-01-04T00:44:20.849Z,0
2018-01-04T00:45:21.577Z,0
2018-01-04T00:46:22.360Z,0
2018-01-04T00:47:23.441Z,0
2018-01-04T00:48:24.109Z,0
2018-01-04T00:49:24.877Z,0
2018-01-04T00:50:25.600Z,0
2018-01-04T00:51:26.319Z,0
2018-01-04T00:52:27.084Z,0
2018-01-04T00:53:27.870Z,0
2018-01-04T00:54:28.640Z,0
2018-01-04T00:55:29.374Z,0
2018-01-04T00:56:30.201Z,0
2018-01-04T00:57:30.941Z,0
2018-01-04T00:58:31.678Z,0
2018-01-04T00:59:32.440Z,0
2018-01-04T01:00:33.159Z,0
2018-01-04T01:01:33.925Z,0
2018-01-04T01:02:34.657Z,0
2018-01-04T01:03:35.443Z,0
2018-01-04T01:04:36.161Z,0
2018-01-04T01:05:36.968Z,0
2018-01-04T01:06:37.671Z,0
2018-01-04T01:07:38.468Z,0
2018-01-04T01:08:39.383Z,0
2018-01-04T01:09:40.253Z,0
2018-01-04T01:10:41.065Z,0
2018-01-04T01:11:41.873Z,0
2018-01-04T01:12:43.021Z,0
2018-01-04T01:13:45.104Z,0
2018-01-04T01:14:45.998Z,0
2018-01-04T01:15:46.838Z,0
2018-01-04T01:16:47.710Z,0
2018-01-04T01:17:48.648Z,0
2018-01-04T01:18:49.525Z,0
2018-01-04T01:19:50.320Z,0
2018-01-04T01:20:51.132Z,0
2018-01-04T01:21:51.921Z,0
2018-01-04T01:22:52.729Z,0
2018-01-04T01:23:53.527Z,0
2018-01-04T01:24:54.251Z,0
2018-01-04T01:25:54.975Z,0
2018-01-04T01:26:55.712Z,0
2018-01-04T01:27:56.441Z,0
2018-01-04T01:28:57.279Z,0
2018-01-04T01:29:57.996Z,0
2018-01-04T01:30:58.732Z,0
2018-01-04T01:31:59.467Z,0
2018-01-04T01:33:00.191Z,0
2018-01-04T01:34:00.979Z,0
2018-01-04T01:35:01.702Z,0
2018-01-04T01:36:02.427Z,0
2018-01-04T01:37:03.161Z,0
2018-01-04T01:38:03.881Z,0
2018-01-04T01:39:04.680Z,0
2018-01-04T01:40:05.449Z,0
2018-01-04T01:41:06.228Z,0
2018-01-04T01:42:06.956Z,0
2018-01-04T01:43:07.751Z,0
2018-01-04T01:44:08.551Z,0
2018-01-04T01:45:09.377Z,0
2018-01-04T01:46:10.102Z,0
2018-01-04T01:47:10.851Z,0
2018-01-04T01:48:11.630Z,0
2018-01-04T01:49:12.360Z,0
2018-01-04T01:50:13.197Z,0
2018-01-04T01:51:14.001Z,0
2018-01-04T01:52:14.770Z,0
2018-01-04T01:53:15.506Z,0
2018-01-04T01:54:16.280Z,0
2018-01-04T01:55:17.044Z,0
2018-01-04T01:56:17.769Z,0
2018-01-04T01:57:18.489Z,0
2018-01-04T01:58:19.220Z,0
2018-01-04T01:59:19.940Z,0
2018-01-04T02:00:20.724Z,0
2018-01-04T02:01:21.503Z,0
2018-01-04T02:02:22.229Z,0
2018-01-04T02:03:22.951Z,0
2018-01-04T02:04:23.685Z,0
2018-01-04T02:05:24.500Z,0
2018-01-04T02:06:25.221Z,0
2018-01-04T02:07:26.011Z,0
2018-01-04T02:08:26.742Z,0
2018-01-04T02:09:27.510Z,0
2018-01-04T02:10:28.217Z,0
2018-01-04T02:11:28.941Z,0
2018-01-04T02:12:29.672Z,0
2018-01-04T02:13:30.451Z,0
2018-01-04T02:14:31.273Z,0
2018-01-04T02:15:32.021Z,0
2018-01-04T02:16:32.750Z,0
2018-01-04T02:17:33.476Z,0
2018-01-04T02:18:34.250Z,0
2018-01-04T02:19:34.980Z,0
2018-01-04T02:20:35.720Z,0
2018-01-04T02:21:36.453Z,0
2018-01-04T02:22:37.180Z,0
2018-01-04T02:23:37.912Z,0
2018-01-04T02:24:38.725Z,0
2018-01-04T02:25:39.431Z,0
2018-01-04T02:26:40.148Z,0
2018-01-04T02:27:40.881Z,0
2018-01-04T02:28:41.690Z,0
2018-01-04T02:29:42.410Z,0
2018-01-04T02:30:43.138Z,0
2018-01-04T02:31:43.861Z,0
2018-01-04T02:32:44.578Z,0
2018-01-04T02:33:45.301Z,0
2018-01-04T02:34:46.026Z,0
2018-01-04T02:35:46.838Z,0
2018-01-04T02:36:47.510Z,0
2018-01-04T02:37:48.244Z,0
2018-01-04T02:38:49.006Z,0
2018-01-04T02:39:49.784Z,0
2018-01-04T02:40:50.591Z,0
2018-01-04T02:41:51.323Z,0
2018-01-04T02:42:52.046Z,0
2018-01-04T02:43:52.814Z,0
2018-01-04T02:44:53.670Z,0
2018-01-04T02:45:54.404Z,0
2018-01-04T02:46:55.199Z,0
2018-01-04T02:47:55.937Z,0
2018-01-04T02:48:56.741Z,0
2018-01-04T02:49:57.521Z,0
2018-01-04T02:50:58.259Z,0
2018-01-04T02:51:59.052Z,0
2018-01-04T02:52:59.781Z,0
2018-01-04T02:54:00.579Z,0
2018-01-04T02:55:01.311Z,0
2018-01-04T02:56:02.038Z,0
2018-01-04T02:57:02.814Z,0
2018-01-04T02:58:03.599Z,0
2018-01-04T02:59:04.330Z,0
2018-01-04T03:00:05.041Z,0
2018-01-04T03:01:05.768Z,0
2018-01-04T03:02:06.480Z,0
2018-01-04T03:03:07.211Z,0
2018-01-04T03:04:07.933Z,0
2018-01-04T03:05:08.746Z,0
2018-01-04T03:06:09.564Z,0
2018-01-04T03:08:24.581Z,0
2018-01-04T03:09:25.332Z,0
2018-01-04T03:10:26.120Z,0
2018-01-04T03:11:26.894Z,0
2018-01-04T03:12:27.717Z,0
2018-01-04T03:13:28.553Z,0
2018-01-04T03:14:29.303Z,0
2018-01-04T03:15:30.086Z,0
2018-01-04T03:16:30.802Z,0
2018-01-04T03:17:31.535Z,0
2018-01-04T03:18:32.250Z,0
2018-01-04T03:19:32.975Z,0
2018-01-04T03:20:33.692Z,0
2018-01-04T03:21:34.494Z,0
2018-01-04T03:22:35.226Z,0
2018-01-04T03:23:35.948Z,0
2018-01-04T03:24:36.743Z,0
2018-01-04T03:25:37.597Z,0
2018-01-04T03:26:38.272Z,0
2018-01-04T03:27:39.003Z,0
2018-01-04T03:28:39.773Z,0
2018-01-04T03:29:40.483Z,0
2018-01-04T03:30:41.204Z,0
2018-01-04T03:31:42.000Z,0
2018-01-04T03:32:42.826Z,0
2018-01-04T03:33:43.588Z,0
2018-01-04T03:34:44.313Z,0
2018-01-04T03:35:45.038Z,0
2018-01-04T03:36:45.753Z,0
2018-01-04T03:37:46.470Z,0
2018-01-04T03:38:47.254Z,0
2018-01-04T03:39:48.060Z,0
2018-01-04T03:40:48.848Z,0
2018-01-04T03:41:49.593Z,0
2018-01-04T03:42:50.355Z,0
2018-01-04T03:43:51.159Z,0
2018-01-04T03:44:51.921Z,0
2018-01-04T03:45:53.834Z,0
2018-01-04T03:46:54.758Z,0
2018-01-04T03:47:55.481Z,0
2018-01-04T03:48:56.215Z,0
2018-01-04T03:49:57.033Z,0
2018-01-04T03:50:57.755Z,0
2018-01-04T03:51:58.477Z,0
2018-01-04T03:52:59.302Z,0
2018-01-04T03:54:00.037Z,0
2018-01-04T03:55:00.862Z,0
2018-01-04T03:56:01.589Z,0
2018-01-04T03:57:02.316Z,0
2018-01-04T03:58:03.032Z,0
2018-01-04T03:59:03.757Z,0
2018-01-04T04:00:04.479Z,0
2018-01-04T04:01:05.279Z,0
2018-01-04T04:02:06.083Z,0
2018-01-04T04:03:06.876Z,0
2018-01-04T04:04:07.658Z,0
2018-01-04T04:05:08.395Z,0
2018-01-04T04:06:09.122Z,0
2018-01-04T04:07:09.840Z,0
2018-01-04T04:08:10.652Z,0
2018-01-04T04:09:11.380Z,0
2018-01-04T04:10:12.098Z,0
2018-01-04T04:11:12.940Z,0
2018-01-04T04:12:13.697Z,0
2018-01-04T04:13:14.420Z,0
2018-01-04T04:14:15.195Z,0
2018-01-04T04:15:15.955Z,0
2018-01-04T04:16:16.688Z,0
2018-01-04T04:17:17.421Z,0
2018-01-04T04:18:18.200Z,0
2018-01-04T04:19:19.005Z,0
2018-01-04T04:20:19.761Z,0
2018-01-04T04:21:20.477Z,0
2018-01-04T04:22:21.268Z,0
2018-01-04T04:23:22.026Z,0
2018-01-04T04:24:22.745Z,0
2018-01-04T04:25:23.476Z,0
2018-01-04T04:26:24.272Z,0
2018-01-04T04:27:24.992Z,0
2018-01-04T04:28:25.757Z,0
2018-01-04T04:29:26.496Z,0
2018-01-04T04:30:27.224Z,0
2018-01-04T04:31:27.939Z,0
2018-01-04T04:32:28.667Z,0
2018-01-04T04:33:29.451Z,0
2018-01-04T04:34:30.188Z,0
2018-01-04T04:35:30.997Z,0
2018-01-04T04:36:31.717Z,0
2018-01-04T04:37:32.451Z,0
2018-01-04T04:38:33.233Z,0
2018-01-04T04:39:33.966Z,0
2018-01-04T04:40:34.817Z,0
2018-01-04T04:41:35.580Z,0
2018-01-04T04:42:36.322Z,0
2018-01-04T04:43:37.097Z,0
2018-01-04T04:44:37.867Z,0
2018-01-04T04:45:38.612Z,0
2018-01-04T04:46:39.294Z,0
2018-01-04T04:47:40.011Z,0
2018-01-04T04:48:40.777Z,0
2018-01-04T04:49:41.535Z,0
2018-01-04T04:50:42.251Z,0
2018-01-04T04:51:42.992Z,0
2018-01-04T04:52:43.714Z,0
2018-01-04T04:53:44.430Z,0
2018-01-04T04:54:45.167Z,0
2018-01-04T04:55:45.971Z,0
2018-01-04T04:56:46.687Z,0
2018-01-04T04:57:47.422Z,0
2018-01-04T04:58:48.204Z,0
2018-01-04T04:59:49.011Z,0
2018-01-04T05:00:49.719Z,0
2018-01-04T05:01:50.448Z,0
2018-01-04T05:02:51.161Z,0
2018-01-04T05:03:51.890Z,0
2018-01-04T05:04:52.611Z,0
2018-01-04T05:05:53.327Z,0
2018-01-04T05:06:54.101Z,0
2018-01-04T05:07:54.816Z,0
2018-01-04T05:08:55.544Z,0
2018-01-04T05:09:56.282Z,0
2018-01-04T05:10:56.996Z,0
2018-01-04T05:11:57.727Z,0
2018-01-04T05:12:58.463Z,0
2018-01-04T05:13:59.236Z,0
2018-01-04T05:15:00.023Z,0
2018-01-04T05:16:00.744Z,0
2018-01-04T05:17:01.457Z,0
2018-01-04T05:18:02.177Z,0
2018-01-04T05:19:02.923Z,0
2018-01-04T05:20:03.792Z,0
2018-01-04T05:21:04.514Z,0
2018-01-04T05:22:05.356Z,0
2018-01-04T05:23:06.149Z,0
2018-01-04T05:24:06.956Z,0
2018-01-04T05:25:07.731Z,0
2018-01-04T05:26:08.463Z,0
2018-01-04T05:27:09.193Z,0
2018-01-04T05:28:09.990Z,0
2018-01-04T05:29:10.713Z,0
2018-01-04T05:30:11.525Z,0
2018-01-04T05:31:12.312Z,0
2018-01-04T05:32:13.055Z,0
2018-01-04T05:33:13.781Z,0
2018-01-04T05:34:14.493Z,0
2018-01-04T05:35:15.385Z,0
2018-01-04T05:36:16.112Z,0
2018-01-04T05:37:16.850Z,0
2018-01-04T05:38:17.561Z,0
2018-01-04T05:39:18.346Z,0
2018-01-04T05:40:19.199Z,0
2018-01-04T05:41:19.917Z,0
2018-01-04T05:42:20.637Z,0
2018-01-04T05:43:21.371Z,0
2018-01-04T05:44:22.096Z,0
2018-01-04T05:45:22.856Z,0
2018-01-04T05:46:23.597Z,0
2018-01-04T05:47:24.364Z,0
2018-01-04T05:48:25.161Z,0
2018-01-04T05:49:25.927Z,0
2018-01-04T05:50:26.697Z,0
2018-01-04T05:51:27.427Z,0
2018-01-04T05:52:28.221Z,0
2018-01-04T05:53:28.938Z,0
2018-01-04T05:54:29.679Z,0
2018-01-04T05:55:30.405Z,0
2018-01-04T05:56:31.117Z,0
2018-01-04T05:57:31.853Z,0
2018-01-04T05:58:32.586Z,0
2018-01-04T05:59:33.304Z,0
2018-01-04T06:00:34.085Z,0
2018-01-04T06:01:34.810Z,0
2018-01-04T06:02:35.540Z,0
2018-01-04T06:03:36.322Z,0
2018-01-04T06:04:37.047Z,0
2018-01-04T06:05:37.769Z,0
2018-01-04T06:06:38.533Z,0
2018-01-04T06:07:39.279Z,0
2018-01-04T06:08:39.978Z,0
2018-01-04T06:09:40.723Z,0
2018-01-04T06:10:41.472Z,0
2018-01-04T06:11:42.261Z,0
2018-01-04T06:12:42.992Z,0
2018-01-04T06:13:43.711Z,0
2018-01-04T06:14:44.442Z,0
2018-01-04T06:15:45.208Z,0
2018-01-04T06:16:45.953Z,0
2018-01-04T06:17:46.741Z,0
2018-01-04T06:18:47.468Z,0
2018-01-04T06:19:48.229Z,0
2018-01-04T06:20:49.014Z,0
2018-01-04T06:21:49.721Z,0
2018-01-04T06:22:50.542Z,0
2018-01-04T06:23:51.312Z,0
2018-01-04T06:24:52.045Z,0
2018-01-04T06:25:52.781Z,0
2018-01-04T06:26:53.501Z,0
2018-01-04T06:27:54.231Z,0
2018-01-04T06:28:54.970Z,0
2018-01-04T06:29:55.764Z,0
2018-01-04T06:30:56.501Z,0
2018-01-04T06:31:57.226Z,0
2018-01-04T06:32:57.990Z,0
2018-01-04T06:33:58.778Z,0
2018-01-04T06:34:59.523Z,0
2018-01-04T06:36:00.283Z,0
2018-01-04T06:37:01.022Z,0
2018-01-04T06:38:01.743Z,0
2018-01-04T06:39:02.544Z,0
2018-01-04T06:40:03.355Z,0
2018-01-04T06:41:04.065Z,0
2018-01-04T06:42:04.801Z,0
2018-01-04T06:43:05.520Z,0
2018-01-04T06:44:06.247Z,0
2018-01-04T06:45:06.992Z,0
2018-01-04T06:46:07.756Z,0
2018-01-04T06:47:08.501Z,0
2018-01-04T06:48:09.287Z,0
2018-01-04T06:49:10.067Z,0
2018-01-04T06:50:10.796Z,0
2018-01-04T06:51:11.635Z,0
2018-01-04T06:52:12.423Z,0
2018-01-04T06:53:13.235Z,0
2018-01-04T06:54:14.025Z,0
2018-01-04T06:55:14.759Z,0
2018-01-04T06:56:15.552Z,0
2018-01-04T06:57:16.331Z,0
2018-01-04T06:58:17.132Z,0
2018-01-04T06:59:17.942Z,0
2018-01-04T07:00:18.671Z,0
2018-01-04T07:01:19.403Z,0
2018-01-04T07:02:20.117Z,0
2018-01-04T07:03:20.851Z,0
2018-01-04T07:04:21.591Z,0
2018-01-04T07:05:22.356Z,0
2018-01-04T07:06:23.099Z,0
2018-01-04T07:07:23.829Z,0
2018-01-04T07:08:24.612Z,0
2018-01-04T07:09:25.361Z,0
2018-01-04T07:10:26.167Z,0
2018-01-04T07:11:26.990Z,0
2018-01-04T07:12:27.760Z,0
2018-01-04T07:13:28.603Z,0
2018-01-04T07:14:29.345Z,0
2018-01-04T07:15:30.175Z,0
2018-01-04T07:16:30.981Z,0
2018-01-04T07:17:31.783Z,0
2018-01-04T07:18:32.602Z,0
2018-01-04T07:19:33.325Z,0
2018-01-04T07:20:34.116Z,0
2018-01-04T07:21:34.919Z,0
2018-01-04T07:22:35.630Z,0
2018-01-04T07:23:36.376Z,0
2018-01-04T07:24:37.166Z,5
2018-01-04T07:25:37.951Z,5
2018-01-04T07:26:38.667Z,5
2018-01-04T07:27:39.393Z,5
2018-01-04T07:28:40.128Z,5
2018-01-04T07:29:40.844Z,11
2018-01-04T07:30:41.656Z,11
2018-01-04T07:31:42.394Z,11
2018-01-04T07:32:43.156Z,11
2018-01-04T07:33:43.893Z,11
2018-01-04T07:34:44.687Z,11
2018-01-04T07:35:45.502Z,16
2018-01-04T07:36:46.245Z,11
2018-01-04T07:37:46.970Z,16
2018-01-04T07:38:47.696Z,16
2018-01-04T07:39:48.434Z,11
2018-01-04T07:40:49.224Z,11
2018-01-04T07:41:50.010Z,11
2018-01-04T07:42:50.738Z,16
2018-01-04T07:43:51.419Z,22
2018-01-04T07:44:52.137Z,22
2018-01-04T07:45:52.961Z,28
2018-01-04T07:46:53.694Z,22
2018-01-04T07:47:54.450Z,28
2018-01-04T07:48:55.172Z,22
2018-01-04T07:49:55.912Z,22
2018-01-04T07:50:56.642Z,28
2018-01-04T07:51:57.384Z,28
2018-01-04T07:52:58.117Z,28
2018-01-04T07:53:58.864Z,33
2018-01-04T07:54:59.670Z,33
2018-01-04T07:56:00.423Z,33
2018-01-04T07:57:01.240Z,33
2018-01-04T07:58:02.055Z,39
2018-01-04T07:59:02.820Z,39
2018-01-04T08:00:03.573Z,39
2018-01-04T08:01:04.384Z,33
2018-01-04T08:02:05.108Z,45
2018-01-04T08:03:05.817Z,39
2018-01-04T08:04:06.552Z,45
2018-01-04T08:05:07.285Z,39
2018-01-04T08:06:08.019Z,45
2018-01-04T08:07:08.802Z,50
2018-01-04T08:08:09.526Z,56
2018-01-04T08:09:10.308Z,50
2018-01-04T08:10:11.026Z,50
2018-01-04T08:11:11.767Z,56
2018-01-04T08:12:12.570Z,61
2018-01-04T08:13:13.345Z,61
2018-01-04T08:14:14.202Z,67
2018-01-04T08:15:14.937Z,73
2018-01-04T08:16:15.683Z,73
2018-01-04T08:17:16.433Z,78
2018-01-04T08:18:17.163Z,73
2018-01-04T08:19:17.926Z,73
2018-01-04T08:20:18.655Z,84
2018-01-04T08:21:19.449Z,90
2018-01-04T08:22:20.183Z,90
2018-01-04T08:23:20.913Z,95
2018-01-04T08:24:21.690Z,95
2018-01-04T08:25:22.479Z,95
2018-01-04T08:26:23.312Z,95
2018-01-04T08:27:24.068Z,90
2018-01-04T08:28:24.787Z,84
2018-01-04T08:29:25.547Z,78
2018-01-04T08:30:26.289Z,73
2018-01-04T08:31:27.112Z,67
2018-01-04T08:32:27.903Z,67
2018-01-04T08:33:28.701Z,73
2018-01-04T08:34:29.491Z,61
2018-01-04T08:35:30.268Z,50
2018-01-04T08:36:31.090Z,56
2018-01-04T08:37:31.896Z,50
2018-01-04T08:38:32.606Z,61
2018-01-04T08:39:33.401Z,73
2018-01-04T08:40:34.222Z,78
2018-01-04T08:41:34.962Z,78
2018-01-04T08:42:35.688Z,90
2018-01-04T08:43:36.416Z,78
2018-01-04T08:44:37.204Z,95
2018-01-04T08:45:37.920Z,95
2018-01-04T08:46:38.650Z,73
2018-01-04T08:47:39.382Z,90
2018-01-04T08:48:40.158Z,95
2018-01-04T08:49:40.960Z,90
2018-01-04T08:50:41.750Z,106
2018-01-04T08:51:42.485Z,112
2018-01-04T08:52:43.215Z,140
2018-01-04T08:53:44.044Z,151
2018-01-04T08:54:44.777Z,151
2018-01-04T08:55:45.598Z,140
2018-01-04T08:56:46.326Z,157
2018-01-04T08:57:47.071Z,129
2018-01-04T08:58:47.855Z,112
2018-01-04T08:59:48.635Z,123
2018-01-04T09:00:49.410Z,118
2018-01-04T09:01:50.162Z,90
2018-01-04T09:02:50.889Z,90
2018-01-04T09:03:51.673Z,95
2018-01-04T09:04:52.396Z,118
2018-01-04T09:05:53.117Z,140
2018-01-04T09:06:53.842Z,129
2018-01-04T09:07:54.557Z,140
2018-01-04T09:08:55.302Z,151
2018-01-04T09:09:56.116Z,135
2018-01-04T09:10:56.836Z,129
2018-01-04T09:11:57.563Z,118
2018-01-04T09:12:58.302Z,151
2018-01-04T09:13:59.107Z,157
2018-01-04T09:15:00.822Z,157
2018-01-04T09:16:01.970Z,180
2018-01-04T09:17:03.921Z,191
2018-01-04T09:18:04.956Z,185
2018-01-04T09:19:05.748Z,202
2018-01-04T09:20:06.480Z,225
2018-01-04T09:21:07.262Z,185
2018-01-04T09:22:07.999Z,185
2018-01-04T09:23:08.807Z,196
2018-01-04T09:24:09.543Z,213
2018-01-04T09:25:10.280Z,185
2018-01-04T09:26:11.140Z,196
2018-01-04T09:27:12.873Z,185
2018-01-04T09:28:13.826Z,180
2018-01-04T09:29:14.557Z,146
2018-01-04T09:30:15.336Z,135
2018-01-04T09:31:16.090Z,118
2018-01-04T09:32:16.837Z,146
2018-01-04T09:33:17.566Z,118
2018-01-04T09:34:18.304Z,135
2018-01-04T09:35:19.557Z,163
2018-01-04T09:36:21.027Z,180
2018-01-04T09:37:22.001Z,185
2018-01-04T09:38:23.239Z,174
2018-01-04T09:39:24.092Z,191
2018-01-04T09:40:24.937Z,225
2018-01-04T09:41:25.680Z,174
2018-01-04T09:42:26.406Z,191
2018-01-04T09:43:27.190Z,225
2018-01-04T09:44:28.836Z,196
2018-01-04T09:45:29.679Z,157
2018-01-04T09:46:30.447Z,140
2018-01-04T09:47:31.156Z,157
2018-01-04T09:48:31.882Z,157
2018-01-04T09:49:32.698Z,135
2018-01-04T09:50:33.438Z,112
2018-01-04T09:51:34.181Z,106
2018-01-04T09:52:34.915Z,118
2018-01-04T09:53:35.722Z,123
2018-01-04T09:54:36.577Z,135
2018-01-04T09:55:37.300Z,174
2018-01-04T09:56:38.326Z,163
2018-01-04T09:57:39.201Z,163
2018-01-04T09:58:39.984Z,129
2018-01-04T09:59:40.796Z,157
2018-01-04T10:00:41.606Z,146
2018-01-04T10:01:42.339Z,151
2018-01-04T10:02:43.072Z,146
2018-01-04T10:03:43.769Z,135
2018-01-04T10:04:44.581Z,123
2018-01-04T10:05:45.354Z,112
2018-01-04T10:06:46.083Z,129
2018-01-04T10:07:46.890Z,112
2018-01-04T10:08:47.624Z,112
2018-01-04T10:09:48.372Z,112
2018-01-04T10:10:49.150Z,135
2018-01-04T10:11:49.892Z,140
2018-01-04T10:12:50.711Z,101
2018-01-04T10:13:51.516Z,129
2018-01-04T10:14:52.239Z,135
2018-01-04T10:15:53.025Z,151
2018-01-04T10:16:53.749Z,151
2018-01-04T10:17:54.500Z,123
2018-01-04T10:18:55.231Z,106
2018-01-04T10:19:56.022Z,118
2018-01-04T10:20:56.803Z,112
2018-01-04T10:21:57.526Z,140
2018-01-04T10:22:58.308Z,118
2018-01-04T10:23:59.072Z,112
2018-01-04T10:24:59.812Z,95
2018-01-04T10:26:00.670Z,90
2018-01-04T10:27:01.396Z,112
2018-01-04T10:28:02.142Z,118
2018-01-04T10:29:02.945Z,118
2018-01-04T10:30:03.671Z,95
2018-01-04T10:31:04.450Z,101
2018-01-04T10:32:05.192Z,90
2018-01-04T10:33:05.936Z,112
2018-01-04T10:34:06.657Z,106
2018-01-04T10:35:07.407Z,84
2018-01-04T10:36:08.246Z,90
2018-01-04T10:37:08.987Z,106
2018-01-04T10:38:09.788Z,84
2018-01-04T10:39:10.519Z,73
2018-01-04T10:40:11.442Z,78
2018-01-04T10:41:12.236Z,90
2018-01-04T10:42:13.015Z,101
2018-01-04T10:43:13.750Z,78
2018-01-04T10:44:14.826Z,106
2018-01-04T10:45:15.716Z,95
2018-01-04T10:46:17.757Z,78
2018-01-04T10:47:18.757Z,95
2018-01-04T10:48:19.511Z,106
2018-01-04T10:49:20.310Z,112
2018-01-04T10:50:21.152Z,106
2018-01-04T10:51:21.922Z,95
2018-01-04T10:52:22.666Z,101
2018-01-04T10:53:23.452Z,106
2018-01-04T10:54:24.208Z,118
2018-01-04T10:55:24.966Z,106
2018-01-04T10:56:25.699Z,118
2018-01-04T10:57:26.477Z,112
2018-01-04T10:58:27.220Z,129
2018-01-04T10:59:27.953Z,174
2018-01-04T11:00:28.696Z,151
2018-01-04T11:01:29.476Z,151
2018-01-04T11:02:30.257Z,163
2018-01-04T11:03:30.982Z,146
2018-01-04T11:04:31.712Z,157
2018-01-04T11:05:32.444Z,191
2018-01-04T11:06:33.233Z,185
2018-01-04T11:07:34.081Z,151
2018-01-04T11:08:34.888Z,174
2018-01-04T11:09:35.620Z,202
2018-01-04T11:10:36.352Z,202
2018-01-04T11:11:37.078Z,191
2018-01-04T11:12:37.867Z,208
2018-01-04T11:13:38.607Z,213
2018-01-04T11:14:39.339Z,208
2018-01-04T11:15:40.158Z,196
2018-01-04T11:16:40.947Z,146
2018-01-04T11:17:41.728Z,140
2018-01-04T11:18:42.519Z,146
2018-01-04T11:19:43.252Z,157
2018-01-04T11:20:43.981Z,180
2018-01-04T11:21:44.777Z,168
2018-01-04T11:22:45.560Z,174
2018-01-04T11:23:46.347Z,174
2018-01-04T11:24:47.076Z,151
2018-01-04T11:25:47.803Z,129
2018-01-04T11:26:48.546Z,123
2018-01-04T11:27:49.326Z,140
2018-01-04T11:28:50.066Z,168
2018-01-04T11:29:50.888Z,196
2018-01-04T11:30:51.680Z,180
2018-01-04T11:31:52.412Z,185
2018-01-04T11:32:53.136Z,213
2018-01-04T11:33:53.880Z,247
2018-01-04T11:34:54.603Z,270
2018-01-04T11:35:55.825Z,309
2018-01-04T11:36:57.235Z,264
2018-01-04T11:37:58.033Z,253
2018-01-04T11:38:58.852Z,247
2018-01-04T11:39:59.586Z,264
2018-01-04T11:41:00.491Z,303
2018-01-04T11:42:01.196Z,371
2018-01-04T11:43:01.943Z,360
2018-01-04T11:44:02.747Z,331
2018-01-04T11:45:03.492Z,309
2018-01-04T11:46:04.300Z,320
2018-01-04T11:47:05.029Z,281
2018-01-04T11:48:05.828Z,292
2018-01-04T11:49:06.585Z,348
2018-01-04T11:50:07.411Z,320
2018-01-04T11:51:08.182Z,303
2018-01-04T11:52:08.986Z,230
2018-01-04T11:53:09.731Z,247
2018-01-04T11:54:11.488Z,270
2018-01-04T11:55:12.537Z,253
2018-01-04T11:56:13.429Z,196
2018-01-04T11:57:14.107Z,196
2018-01-04T11:58:14.881Z,163
2018-01-04T11:59:15.694Z,208
2018-01-04T12:00:16.798Z,219
2018-01-04T12:01:17.621Z,225
2018-01-04T12:02:18.965Z,230
2018-01-04T12:03:19.699Z,247
2018-01-04T12:04:20.575Z,298
2018-01-04T12:05:21.268Z,292
2018-01-04T12:06:22.075Z,247
2018-01-04T12:07:23.113Z,213
2018-01-04T12:08:23.934Z,196
2018-01-04T12:09:24.685Z,208
2018-01-04T12:10:25.431Z,168
2018-01-04T12:11:26.160Z,129
2018-01-04T12:12:26.891Z,118
2018-01-04T12:13:27.625Z,151
2018-01-04T12:14:28.412Z,202
2018-01-04T12:15:29.160Z,196
2018-01-04T12:16:29.940Z,191
2018-01-04T12:17:30.687Z,185
2018-01-04T12:18:31.490Z,185
2018-01-04T12:19:32.275Z,213
2018-01-04T12:20:33.023Z,202
2018-01-04T12:21:33.844Z,219
2018-01-04T12:22:34.567Z,213
2018-01-04T12:23:35.306Z,225
2018-01-04T12:24:36.047Z,225
2018-01-04T12:25:36.823Z,191
2018-01-04T12:26:37.548Z,151
2018-01-04T12:27:38.362Z,174
2018-01-04T12:28:39.151Z,202
2018-01-04T12:29:39.877Z,208
2018-01-04T12:30:40.701Z,230
2018-01-04T12:31:41.457Z,225
2018-01-04T12:32:42.210Z,264
2018-01-04T12:33:43.008Z,303
2018-01-04T12:34:43.753Z,331
2018-01-04T12:35:44.578Z,320
2018-01-04T12:36:45.328Z,303
2018-01-04T12:37:46.752Z,298
2018-01-04T12:38:47.425Z,298
2018-01-04T12:39:48.405Z,298
2018-01-04T12:40:50.289Z,303
2018-01-04T12:41:52.048Z,303
2018-01-04T12:42:52.771Z,303
2018-01-04T12:43:53.523Z,343
2018-01-04T12:44:54.248Z,393
2018-01-04T12:45:55.040Z,427
2018-01-04T12:46:55.780Z,433
2018-01-04T12:47:57.146Z,405
2018-01-04T12:48:58.903Z,371
2018-01-04T12:50:00.865Z,337
2018-01-04T12:51:02.081Z,309
2018-01-04T12:52:04.511Z,303
2018-01-04T12:53:06.112Z,303
2018-01-04T12:54:07.754Z,303
2018-01-04T12:55:08.444Z,275
2018-01-04T12:56:09.341Z,253
2018-01-04T12:57:10.559Z,264
2018-01-04T12:58:11.281Z,298
2018-01-04T12:59:11.986Z,315
2018-01-04T13:00:13.779Z,348
2018-01-04T13:01:15.697Z,371
2018-01-04T13:02:17.148Z,365
2018-01-04T13:03:17.877Z,371
2018-01-04T13:04:18.716Z,376
2018-01-04T13:05:19.462Z,393
2018-01-04T13:06:20.328Z,388
2018-01-04T13:07:21.146Z,337
2018-01-04T13:08:21.968Z,281
2018-01-04T13:09:22.716Z,286
2018-01-04T13:10:23.460Z,320
2018-01-04T13:11:24.212Z,354
2018-01-04T13:12:24.943Z,360
2018-01-04T13:13:25.856Z,315
2018-01-04T13:14:26.615Z,275
2018-01-04T13:15:27.349Z,264
2018-01-04T13:16:28.091Z,258
2018-01-04T13:17:28.866Z,247
2018-01-04T13:18:29.595Z,247
2018-01-04T13:19:30.347Z,236
2018-01-04T13:20:31.124Z,196
2018-01-04T13:21:31.915Z,180
2018-01-04T13:22:32.736Z,202
2018-01-04T13:23:33.540Z,247
2018-01-04T13:25:48.639Z,292
2018-01-04T13:26:49.419Z,292
2018-01-04T13:27:50.490Z,298
2018-01-04T13:28:51.172Z,303
2018-01-04T13:29:51.986Z,303
2018-01-04T13:30:52.760Z,292
2018-01-04T13:31:53.499Z,298
2018-01-04T13:32:54.241Z,337
2018-01-04T13:33:54.965Z,343
2018-01-04T13:34:55.698Z,320
2018-01-04T13:35:56.550Z,286
2018-01-04T13:36:57.296Z,281
2018-01-04T13:37:58.076Z,292
2018-01-04T13:38:58.827Z,298
2018-01-04T13:39:59.514Z,303
2018-01-04T13:41:00.249Z,309
2018-01-04T13:42:01.098Z,298
2018-01-04T13:43:01.907Z,286
2018-01-04T13:44:02.639Z,281
2018-01-04T13:45:03.385Z,275
2018-01-04T13:46:04.173Z,275
2018-01-04T13:47:04.924Z,270
2018-01-04T13:48:05.705Z,264
2018-01-04T13:49:06.442Z,253
2018-01-04T13:50:07.180Z,236
2018-01-04T13:51:07.926Z,225
2018-01-04T13:52:08.726Z,213
2018-01-04T13:53:09.469Z,208
2018-01-04T13:54:10.251Z,208
2018-01-04T13:55:10.986Z,202
2018-01-04T13:56:11.727Z,202
2018-01-04T13:57:12.530Z,202
2018-01-04T13:58:13.325Z,196
2018-01-04T13:59:14.047Z,191
2018-01-04T14:00:14.789Z,180
2018-01-04T14:01:15.596Z,180
2018-01-04T14:02:16.374Z,185
2018-01-04T14:03:17.176Z,191
2018-01-04T14:04:17.920Z,191
2018-01-04T14:05:18.646Z,180
2018-01-04T14:06:19.397Z,174
2018-01-04T14:07:20.420Z,163
2018-01-04T14:08:21.516Z,151
2018-01-04T14:09:22.252Z,163
2018-01-04T14:10:22.991Z,163
2018-01-04T14:11:23.716Z,163
2018-01-04T14:12:24.454Z,168
2018-01-04T14:13:25.275Z,163
2018-01-04T14:14:26.011Z,174
2018-01-04T14:15:26.739Z,180
2018-01-04T14:16:27.480Z,191
2018-01-04T14:17:28.250Z,202
2018-01-04T14:18:29.061Z,196
2018-01-04T14:19:29.789Z,191
2018-01-04T14:20:30.548Z,174
2018-01-04T14:21:31.362Z,168
2018-01-04T14:22:32.187Z,163
2018-01-04T14:23:32.973Z,157
2018-01-04T14:24:33.698Z,151
2018-01-04T14:25:34.517Z,146
2018-01-04T14:26:35.259Z,140
2018-01-04T14:27:36.045Z,140
2018-01-04T14:28:36.820Z,135
2018-01-04T14:29:37.618Z,129
2018-01-04T14:30:38.352Z,123
2018-01-04T14:31:39.114Z,112
2018-01-04T14:32:39.923Z,101
2018-01-04T14:33:40.740Z,101